Time;durP1;ratioP1;P1;durP2;ratioP2;P2;SDS_P1;SDS_P2;PMS_P1;PMS_P2;Temp;Humidity;BMP_temperature;BMP_pressure;BME280_temperature;BME280_humidity;BME280_pressure;Samples;Min_cycle;Max_cycle;Signal;HPM_P1;HPM_P2
2022/07/03 00:00:37;;;;;;;;;52.33;41.33;;;;;23.58;56.36;101636.39;111193;1264;10554;-87
2022/07/03 00:03:05;;;;;;;;;57.67;42.00;;;;;23.60;56.27;101634.63;111020;1264;18274;-87
2022/07/03 00:05:32;;;;;;;;;52.00;40.67;;;;;23.61;56.07;101635.55;110918;1264;18768;-87
2022/07/03 00:08:00;;;;;;;;;46.00;39.00;;;;;23.54;56.38;101632.57;110911;1264;19166;-88
2022/07/03 00:10:27;;;;;;;;;46.33;38.33;;;;;23.66;56.08;101634.13;110935;1264;19813;-87
2022/07/03 00:12:54;;;;;;;;;41.67;38.00;;;;;23.54;56.06;101631.41;110938;1264;19040;-88
2022/07/03 00:15:22;;;;;;;;;40.50;36.00;;;;;23.47;56.10;101632.10;110930;1264;18822;-87
2022/07/03 00:17:49;;;;;;;;;35.00;30.00;;;;;23.46;56.12;101631.05;110922;1264;19412;-88
2022/07/03 00:20:16;;;;;;;;;35.33;30.33;;;;;23.36;56.18;101625.48;110916;1264;18680;-87
2022/07/03 00:22:44;;;;;;;;;32.00;28.50;;;;;23.33;56.11;101628.20;110927;1264;22877;-87
2022/07/03 00:25:11;;;;;;;;;32.67;32.67;;;;;23.30;56.31;101631.44;110946;1264;19581;-87
2022/07/03 00:27:39;;;;;;;;;33.67;30.33;;;;;23.28;56.25;101633.80;110864;1268;21866;-89
2022/07/03 00:30:07;;;;;;;;;29.33;29.00;;;;;23.25;56.36;101628.09;110908;1265;18879;-87
2022/07/03 00:32:37;;;;;;;;;30.33;27.33;;;;;23.25;56.46;101628.03;110903;1264;21019;-88
2022/07/03 00:35:04;;;;;;;;;29.33;25.00;;;;;23.28;56.40;101621.02;110837;1264;18851;-87
2022/07/03 00:37:32;;;;;;;;;30.00;28.00;;;;;23.26;56.41;101625.27;110743;1264;18803;-88
2022/07/03 00:39:59;;;;;;;;;27.67;26.67;;;;;23.21;56.75;101619.34;110799;1265;22645;-89
2022/07/03 00:42:27;;;;;;;;;28.67;26.00;;;;;23.20;56.91;101619.89;110708;1264;20193;-89
2022/07/03 00:44:55;;;;;;;;;29.00;26.00;;;;;23.22;57.25;101612.46;110690;1265;19715;-88
2022/07/03 00:47:23;;;;;;;;;28.00;25.67;;;;;23.08;57.67;101611.80;110794;1265;21918;-88
2022/07/03 00:49:50;;;;;;;;;24.33;23.67;;;;;22.93;58.44;101608.02;110829;1265;18823;-90
2022/07/03 00:52:18;;;;;;;;;28.67;25.33;;;;;22.96;58.61;101602.57;110855;1264;19017;-87
2022/07/03 00:54:46;;;;;;;;;24.67;23.67;;;;;22.99;58.67;101604.04;110891;1265;19525;-88
2022/07/03 00:57:14;;;;;;;;;24.67;23.67;;;;;23.07;58.64;101598.09;110894;1265;18846;-87
2022/07/03 00:59:42;;;;;;;;;29.00;28.00;;;;;23.02;58.65;101601.68;110886;1264;20591;-88
2022/07/03 01:02:09;;;;;;;;;27.67;25.33;;;;;23.11;58.53;101600.92;110835;1264;21221;-89
2022/07/03 01:04:36;;;;;;;;;37.00;33.33;;;;;23.20;58.27;101592.27;110878;1264;18734;-87
2022/07/03 01:07:04;;;;;;;;;46.67;41.33;;;;;23.23;58.07;101598.11;110933;1264;19615;-88
2022/07/03 01:09:31;;;;;;;;;43.67;38.67;;;;;23.13;58.38;101597.04;110920;1264;19834;-89
2022/07/03 01:11:58;;;;;;;;;42.33;38.00;;;;;23.07;58.40;101596.39;110972;1264;18894;-87
2022/07/03 01:14:26;;;;;;;;;38.33;36.67;;;;;23.07;58.28;101595.49;110870;1264;19091;-86
2022/07/03 01:16:54;;;;;;;;;38.67;36.33;;;;;23.05;58.20;101599.92;110900;1265;19635;-89
2022/07/03 01:19:21;;;;;;;;;38.33;31.00;;;;;23.10;58.10;101593.52;110846;1264;20147;-88
2022/07/03 01:21:49;;;;;;;;;35.67;34.00;;;;;23.10;57.98;101593.30;110896;1264;18816;-87
2022/07/03 01:24:16;;;;;;;;;37.33;35.00;;;;;23.12;57.93;101593.13;110996;1264;19560;-88
2022/07/03 01:26:43;;;;;;;;;34.00;32.33;;;;;23.14;58.08;101593.08;110885;1264;18753;-88
2022/07/03 01:29:11;;;;;;;;;34.00;31.67;;;;;23.15;58.04;101594.98;110867;1264;18852;-89
2022/07/03 01:31:38;;;;;;;;;36.00;33.67;;;;;23.12;58.03;101594.73;110945;1264;19395;-87
2022/07/03 01:34:05;;;;;;;;;30.00;29.33;;;;;23.11;58.07;101593.77;110790;1265;21559;-88
2022/07/03 01:36:33;;;;;;;;;34.00;31.00;;;;;23.17;57.89;101592.50;110885;1265;19245;-89
2022/07/03 01:39:00;;;;;;;;;31.67;30.00;;;;;23.22;57.77;101587.28;110864;1264;21860;-88
2022/07/03 01:41:27;;;;;;;;;30.33;29.67;;;;;23.26;57.62;101586.15;110926;1264;18862;-87
2022/07/03 01:43:55;;;;;;;;;31.67;29.67;;;;;23.25;57.52;101586.45;110872;1264;19138;-88
2022/07/03 01:46:22;;;;;;;;;35.33;34.00;;;;;23.26;57.71;101587.73;110774;1265;19610;-87
2022/07/03 01:48:50;;;;;;;;;35.00;35.00;;;;;23.26;57.45;101588.44;110910;1264;23098;-88
2022/07/03 01:51:17;;;;;;;;;37.00;35.33;;;;;23.28;57.52;101582.45;110867;1264;19826;-87
2022/07/03 01:53:45;;;;;;;;;38.00;37.00;;;;;23.22;57.41;101585.27;110868;1264;22045;-88
2022/07/03 01:56:12;;;;;;;;;36.50;35.00;;;;;23.21;57.40;101583.21;110870;1264;22017;-87
2022/07/03 01:58:39;;;;;;;;;39.00;36.50;;;;;23.21;57.34;101581.36;110927;1264;21637;-88
2022/07/03 02:01:07;;;;;;;;;38.00;37.67;;;;;23.18;57.40;101578.59;110913;1265;19644;-88
2022/07/03 02:03:34;;;;;;;;;35.67;34.00;;;;;23.14;57.54;101575.95;110967;1264;20895;-88
2022/07/03 02:06:02;;;;;;;;;38.67;38.00;;;;;23.11;57.69;101577.49;110909;1264;19170;-87
2022/07/03 02:08:29;;;;;;;;;37.67;34.00;;;;;23.13;57.62;101580.41;110789;1264;19459;-87
2022/07/03 02:10:56;;;;;;;;;36.67;34.00;;;;;23.16;57.53;101576.98;110830;1265;18670;-87
2022/07/03 02:13:24;;;;;;;;;38.00;33.33;;;;;23.20;57.52;101577.84;110933;1264;18850;-87
2022/07/03 02:15:51;;;;;;;;;33.00;32.33;;;;;23.22;57.40;101584.06;110907;1264;19764;-90
2022/07/03 02:18:19;;;;;;;;;36.67;33.67;;;;;23.19;57.40;101585.38;110836;1265;18935;-90
2022/07/03 02:20:48;;;;;;;;;39.00;37.50;;;;;23.20;57.24;101586.02;110842;1264;19316;-88
2022/07/03 02:23:15;;;;;;;;;38.00;38.00;;;;;23.21;57.25;101581.56;110832;1264;22602;-86
2022/07/03 02:25:43;;;;;;;;;43.00;38.00;;;;;23.20;57.22;101580.55;110844;1264;18872;-88
2022/07/03 02:28:10;;;;;;;;;38.33;34.00;;;;;23.16;57.05;101576.75;110862;1264;22182;-87
2022/07/03 02:30:38;;;;;;;;;39.00;38.00;;;;;23.13;57.00;101574.98;110743;1265;22507;-86
2022/07/03 02:33:05;;;;;;;;;42.33;37.67;;;;;23.15;57.06;101582.02;110835;1264;19343;-88
2022/07/03 02:35:33;;;;;;;;;38.00;36.67;;;;;23.13;57.01;101581.19;110856;1264;26916;-88
2022/07/03 02:38:00;;;;;;;;;41.00;38.00;;;;;23.11;57.02;101579.80;110882;1264;21346;-88
2022/07/03 02:40:28;;;;;;;;;38.67;38.00;;;;;23.08;57.11;101572.98;110799;1265;19802;-88
2022/07/03 02:42:55;;;;;;;;;38.33;38.00;;;;;23.08;57.20;101572.84;110914;1264;19003;-87
2022/07/03 02:45:23;;;;;;;;;37.67;36.33;;;;;23.08;57.34;101572.42;110855;1264;19609;-87
2022/07/03 02:47:50;;;;;;;;;40.33;37.67;;;;;23.07;57.32;101576.56;110861;1265;18740;-87
2022/07/03 02:50:17;;;;;;;;;37.33;34.33;;;;;23.03;57.27;101575.91;110911;1264;23073;-85
2022/07/03 02:52:45;;;;;;;;;37.67;35.00;;;;;22.99;57.50;101572.91;110904;1262;19755;-84
2022/07/03 02:55:12;;;;;;;;;40.00;35.67;;;;;23.00;57.44;101568.45;111288;1263;22871;-87
2022/07/03 02:57:40;;;;;;;;;46.33;41.33;;;;;23.03;57.47;101567.66;111585;1264;18837;-88
2022/07/03 03:00:07;;;;;;;;;44.67;38.00;;;;;23.06;57.18;101568.25;110856;1265;19527;-88
2022/07/03 03:02:35;;;;;;;;;39.67;37.00;;;;;23.09;57.18;101562.85;110752;1264;23859;-87
2022/07/03 03:05:02;;;;;;;;;36.67;35.33;;;;;23.07;57.11;101563.58;110851;1264;18950;-88
2022/07/03 03:07:30;;;;;;;;;38.00;35.67;;;;;23.03;57.25;101558.06;110838;1264;19810;-89
2022/07/03 03:09:57;;;;;;;;;32.00;29.00;;;;;22.91;57.46;101558.11;110901;1264;18990;-86
2022/07/03 03:12:24;;;;;;;;;34.00;33.00;;;;;22.90;57.51;101562.27;110875;1264;18833;-86
2022/07/03 03:14:54;;;;;;;;;36.00;32.67;;;;;22.84;57.62;101558.02;110768;1264;22362;-86
2022/07/03 03:17:21;;;;;;;;;34.00;32.50;;;;;22.68;58.06;101559.20;110840;1264;21455;-89
2022/07/03 03:19:49;;;;;;;;;33.33;31.33;;;;;22.62;58.27;101558.52;110874;1264;18939;-87
2022/07/03 03:22:16;;;;;;;;;31.00;29.00;;;;;22.67;58.12;101554.94;110832;1264;19524;-87
2022/07/03 03:24:43;;;;;;;;;32.00;31.00;;;;;22.62;58.43;101554.21;110901;1264;18761;-88
2022/07/03 03:27:11;;;;;;;;;34.33;29.67;;;;;22.65;58.31;101552.08;110858;1264;18983;-87
2022/07/03 03:29:38;;;;;;;;;30.00;27.50;;;;;22.71;58.35;101556.34;110838;1264;19515;-87
2022/07/03 03:32:05;;;;;;;;;30.00;26.67;;;;;22.75;58.33;101553.52;110971;1265;18917;-88
2022/07/03 03:34:33;;;;;;;;;31.67;31.00;;;;;22.79;58.32;101555.63;110763;1265;18969;-87
2022/07/03 03:37:00;;;;;;;;;30.00;28.00;;;;;22.81;58.43;101557.05;110950;1264;19459;-88
2022/07/03 03:39:28;;;;;;;;;27.67;27.00;;;;;22.80;58.65;101552.44;110823;1265;19412;-86
2022/07/03 03:41:55;;;;;;;;;28.00;27.33;;;;;22.63;59.15;101549.70;110880;1264;20660;-89
2022/07/03 03:44:23;;;;;;;;;30.67;28.00;;;;;22.57;59.48;101551.65;110945;1264;20079;-87
2022/07/03 03:46:50;;;;;;;;;31.33;30.33;;;;;22.51;59.83;101548.16;110903;1264;22109;-88
2022/07/03 03:49:18;;;;;;;;;31.50;29.50;;;;;22.42;60.20;101552.30;110968;1264;18807;-87
2022/07/03 03:51:45;;;;;;;;;27.67;27.00;;;;;22.44;60.20;101547.66;110797;1265;20899;-88
2022/07/03 03:54:13;;;;;;;;;32.33;31.00;;;;;22.23;60.83;101550.36;110869;1264;18960;-90
2022/07/03 03:56:41;;;;;;;;;32.67;31.00;;;;;22.11;61.17;101551.58;110864;1264;18936;-88
2022/07/03 03:59:08;;;;;;;;;30.67;29.33;;;;;22.06;61.34;101555.64;110894;1264;19548;-89
2022/07/03 04:01:35;;;;;;;;;30.67;28.33;;;;;22.01;61.61;101554.15;110843;1264;20539;-89
2022/07/03 04:04:03;;;;;;;;;30.33;27.00;;;;;22.04;61.78;101559.96;110835;1266;19140;-87
2022/07/03 04:06:30;;;;;;;;;26.33;24.00;;;;;22.22;61.42;101556.61;110870;1264;19858;-86
2022/07/03 04:08:58;;;;;;;;;36.00;33.67;;;;;22.06;61.25;101560.66;110865;1264;18949;-87
2022/07/03 04:11:25;;;;;;;;;29.67;26.67;;;;;21.89;61.87;101559.63;110904;1264;18967;-88
2022/07/03 04:13:52;;;;;;;;;29.67;28.67;;;;;21.88;61.77;101559.50;110837;1264;25258;-86
2022/07/03 04:16:20;;;;;;;;;28.00;27.67;;;;;21.79;61.85;101558.52;110853;1264;22763;-87
2022/07/03 04:18:47;;;;;;;;;33.33;33.33;;;;;21.71;61.93;101551.03;110922;1264;19531;-87
2022/07/03 04:21:15;;;;;;;;;29.67;29.00;;;;;21.76;62.12;101556.23;110822;1264;19864;-86
2022/07/03 04:23:42;;;;;;;;;31.33;30.00;;;;;21.85;61.83;101556.23;110889;1264;18650;-88
2022/07/03 04:26:09;;;;;;;;;32.00;29.33;;;;;21.87;61.56;101553.11;110753;1265;21108;-89
2022/07/03 04:28:37;;;;;;;;;25.67;25.33;;;;;21.83;61.79;101550.59;110905;1264;19845;-90
2022/07/03 04:31:04;;;;;;;;;26.67;26.33;;;;;21.74;61.81;101549.65;110899;1264;23083;-87
2022/07/03 04:33:31;;;;;;;;;32.33;27.67;;;;;21.79;61.92;101549.36;110823;1264;18990;-88
2022/07/03 04:35:59;;;;;;;;;23.50;23.50;;;;;21.76;61.75;101542.15;110817;1265;19778;-88
2022/07/03 04:38:26;;;;;;;;;28.33;26.33;;;;;21.60;62.24;101544.50;110826;1264;19115;-88
2022/07/03 04:40:53;;;;;;;;;25.00;23.00;;;;;21.77;61.91;101538.88;110909;1264;18816;-87
2022/07/03 04:43:21;;;;;;;;;25.33;25.33;;;;;21.86;61.50;101542.64;110899;1264;19659;-87
2022/07/03 04:45:48;;;;;;;;;26.50;25.00;;;;;21.80;61.78;101543.12;110888;1264;20429;-88
2022/07/03 04:48:16;;;;;;;;;32.67;28.33;;;;;21.86;61.64;101543.00;110879;1264;18843;-86
2022/07/03 04:50:43;;;;;;;;;27.00;25.50;;;;;21.83;61.65;101549.89;110841;1264;21367;-85
2022/07/03 04:53:11;;;;;;;;;27.00;27.00;;;;;21.95;61.61;101550.02;110944;1264;18840;-88
2022/07/03 04:55:38;;;;;;;;;30.33;29.00;;;;;21.97;61.49;101550.77;110904;1265;22692;-86
2022/07/03 04:58:06;;;;;;;;;31.50;29.50;;;;;21.98;61.91;101554.31;110945;1264;19739;-88
2022/07/03 05:00:41;;;;;;;;;26.50;25.00;;;;;21.90;62.09;101550.92;110780;1265;21909;-87
2022/07/03 05:03:09;;;;;;;;;28.67;27.33;;;;;22.04;61.76;101554.17;110889;1264;19120;-88
2022/07/03 05:05:37;;;;;;;;;31.67;30.33;;;;;22.13;61.59;101548.14;110834;1264;21099;-89
2022/07/03 05:08:04;;;;;;;;;28.33;25.67;;;;;22.21;61.16;101543.42;110880;1264;19345;-87
2022/07/03 05:10:31;;;;;;;;;32.00;31.00;;;;;22.24;61.12;101547.12;110860;1265;19011;-88
2022/07/03 05:12:59;;;;;;;;;30.33;30.00;;;;;22.07;61.50;101554.54;110902;1264;19413;-86
2022/07/03 05:15:26;;;;;;;;;30.00;29.00;;;;;21.89;62.01;101552.20;110884;1264;18750;-87
2022/07/03 05:17:54;;;;;;;;;30.50;28.00;;;;;21.95;62.13;101554.48;110994;1264;20305;-87
2022/07/03 05:20:29;;;;;;;;;29.33;27.00;;;;;21.98;62.25;101554.96;110794;1264;19632;-87
2022/07/03 05:22:56;;;;;;;;;32.67;29.67;;;;;22.11;62.21;101553.56;110845;1264;18981;-87
2022/07/03 05:25:23;;;;;;;;;28.67;27.33;;;;;22.20;61.97;101552.50;110904;1264;18982;-87
2022/07/03 05:27:52;;;;;;;;;29.33;28.33;;;;;22.29;61.66;101554.98;110854;1264;19606;-85
2022/07/03 05:30:20;;;;;;;;;28.00;26.67;;;;;22.38;61.52;101557.23;110947;1264;18881;-88
2022/07/03 05:32:47;;;;;;;;;27.00;26.00;;;;;22.46;61.38;101555.11;110927;1264;19222;-86
2022/07/03 05:35:14;;;;;;;;;25.50;25.50;;;;;22.53;61.09;101548.85;110838;1264;21810;-87
2022/07/03 05:37:42;;;;;;;;;27.00;25.67;;;;;22.51;61.28;101553.80;110822;1263;22192;-89
2022/07/03 05:40:09;;;;;;;;;27.67;26.00;;;;;22.57;61.19;101550.39;111071;1264;18859;-88
2022/07/03 05:42:36;;;;;;;;;31.00;27.67;;;;;22.38;61.56;101555.00;111324;1255;62135;-50
2022/07/03 05:45:04;;;;;;;;;32.50;30.50;;;;;22.32;62.01;101547.16;110278;1264;18982;-50
2022/07/03 05:47:31;;;;;;;;;34.67;32.00;;;;;22.44;62.03;101546.95;110268;1264;18286;-50
2022/07/03 05:49:58;;;;;;;;;22.33;22.33;;;;;22.79;60.98;101544.45;110291;1264;19590;-49
2022/07/03 05:52:25;;;;;;;;;28.00;26.50;;;;;23.06;60.25;101540.63;110267;1264;18777;-48
2022/07/03 05:54:53;;;;;;;;;25.00;24.50;;;;;23.01;59.84;101536.82;110176;1265;203616;-49
2022/07/03 05:57:21;;;;;;;;;24.67;24.00;;;;;23.15;59.43;101537.20;110305;1264;19883;-47
2022/07/03 05:59:48;;;;;;;;;25.00;24.33;;;;;23.35;58.98;101541.70;110239;1264;18817;-48
2022/07/03 06:02:16;;;;;;;;;28.33;28.00;;;;;23.19;58.91;101541.64;110218;1264;22659;-46
2022/07/03 06:04:43;;;;;;;;;29.33;28.33;;;;;22.93;58.96;101542.95;110130;1265;19608;-47
2022/07/03 06:07:10;;;;;;;;;27.33;26.33;;;;;22.98;58.73;101533.83;110245;1264;18979;-47
2022/07/03 06:09:37;;;;;;;;;34.00;28.00;;;;;23.34;58.05;101532.48;110295;1265;18913;-47
2022/07/03 06:12:04;;;;;;;;;24.33;23.00;;;;;23.41;57.40;101534.06;110234;1264;21850;-49
2022/07/03 06:14:32;;;;;;;;;23.67;20.33;;;;;23.18;58.02;101533.16;110279;1264;18722;-47
2022/07/03 06:16:59;;;;;;;;;23.67;23.33;;;;;23.36;57.96;101532.79;110303;1264;18849;-49
2022/07/03 06:19:27;;;;;;;;;21.67;21.67;;;;;23.61;57.50;101526.39;110306;1264;22929;-48
2022/07/03 06:21:54;;;;;;;;;23.50;22.50;;;;;23.58;57.23;101519.10;110503;1264;18049;-52
2022/07/03 06:24:21;;;;;;;;;24.00;23.50;;;;;23.51;57.20;101521.07;110232;1264;19270;-49
2022/07/03 06:26:48;;;;;;;;;26.67;24.33;;;;;23.57;57.39;101521.67;110244;1264;19648;-49
2022/07/03 06:29:16;;;;;;;;;24.67;22.67;;;;;23.74;57.35;101521.45;110276;1265;18998;-51
2022/07/03 06:31:43;;;;;;;;;23.00;23.00;;;;;23.92;56.87;101519.17;110280;1265;18969;-49
2022/07/03 06:34:10;;;;;;;;;24.00;21.00;;;;;24.00;56.71;101518.61;110356;1264;19921;-50
2022/07/03 06:36:37;;;;;;;;;23.33;22.00;;;;;23.97;56.44;101523.50;110246;1264;18831;-51
2022/07/03 06:39:05;;;;;;;;;23.00;21.00;;;;;23.86;56.08;101525.92;110282;1264;19000;-50
2022/07/03 06:41:32;;;;;;;;;17.00;17.00;;;;;23.72;55.82;101519.55;110242;1264;19466;-48
2022/07/03 06:43:59;;;;;;;;;20.00;19.00;;;;;23.72;55.51;101521.15;110255;1264;18815;-48
2022/07/03 06:46:26;;;;;;;;;19.00;17.00;;;;;23.70;55.46;101524.45;110280;1264;22775;-50
2022/07/03 06:48:54;;;;;;;;;19.00;17.33;;;;;23.87;55.32;101520.17;110308;1264;19476;-50
2022/07/03 06:51:21;;;;;;;;;19.00;17.00;;;;;24.09;54.88;101524.73;110159;1264;18964;-54
2022/07/03 06:53:48;;;;;;;;;24.33;21.33;;;;;24.27;54.59;101526.27;110242;1264;21486;-48
2022/07/03 06:56:16;;;;;;;;;17.00;15.33;;;;;24.37;54.27;101522.21;110264;1264;21124;-49
2022/07/03 06:58:43;;;;;;;;;16.00;14.00;;;;;24.16;54.01;101523.50;110224;1264;18791;-51
2022/07/03 07:01:10;;;;;;;;;15.33;14.67;;;;;24.02;54.24;101519.80;110277;1264;18981;-47
2022/07/03 07:03:37;;;;;;;;;12.00;12.00;;;;;24.15;53.47;101523.47;110104;1265;19768;-48
2022/07/03 07:06:05;;;;;;;;;16.00;15.00;;;;;24.18;53.41;101516.73;110269;1264;18747;-46
2022/07/03 07:08:32;;;;;;;;;14.33;13.67;;;;;24.40;53.13;101519.80;110285;1264;18997;-51
2022/07/03 07:11:00;;;;;;;;;15.67;15.67;;;;;24.63;52.56;101512.42;110290;1264;22907;-50
2022/07/03 07:13:27;;;;;;;;;15.33;15.00;;;;;24.56;52.42;101514.06;110249;1264;19116;-50
2022/07/03 07:15:54;;;;;;;;;15.00;15.00;;;;;24.16;52.80;101505.88;110332;1264;22782;-50
2022/07/03 07:18:22;;;;;;;;;18.00;17.00;;;;;24.38;52.89;101509.19;110262;1264;19556;-50
2022/07/03 07:20:49;;;;;;;;;17.00;16.00;;;;;24.38;53.04;101506.84;110244;1264;18934;-50
2022/07/03 07:23:16;;;;;;;;;12.33;12.33;;;;;24.18;52.78;101507.25;110282;1264;18866;-51
2022/07/03 07:25:44;;;;;;;;;15.33;15.33;;;;;24.27;53.58;101500.63;110227;1264;23004;-50
2022/07/03 07:28:11;;;;;;;;;16.33;16.00;;;;;24.66;54.05;101503.28;110191;1264;18700;-49
2022/07/03 07:30:39;;;;;;;;;15.67;15.67;;;;;24.47;54.66;101501.54;110203;1264;32920;-49
2022/07/03 07:33:06;;;;;;;;;15.50;15.50;;;;;24.23;54.26;101496.20;110190;1265;19520;-50
2022/07/03 07:35:34;;;;;;;;;16.00;15.00;;;;;24.17;53.30;101499.27;110225;1264;18946;-49
2022/07/03 07:38:01;;;;;;;;;15.67;15.00;;;;;23.87;53.71;101498.50;110277;1265;19322;-48
2022/07/03 07:40:28;;;;;;;;;14.00;13.33;;;;;24.36;52.68;101494.05;110309;1264;19553;-50
2022/07/03 07:42:55;;;;;;;;;15.00;13.67;;;;;24.87;51.48;101492.17;110265;1264;22275;-51
2022/07/03 07:45:23;;;;;;;;;13.67;13.00;;;;;24.74;51.00;101488.14;110306;1265;18972;-50
2022/07/03 07:47:50;;;;;;;;;15.50;15.00;;;;;24.65;51.18;101485.69;110268;1264;20809;-49
2022/07/03 07:50:17;;;;;;;;;13.00;13.00;;;;;24.67;50.59;101485.46;110291;1265;18880;-49
2022/07/03 07:52:44;;;;;;;;;11.33;10.67;;;;;24.48;50.30;101482.64;110297;1264;19012;-49
2022/07/03 07:55:12;;;;;;;;;11.00;11.00;;;;;24.30;48.91;101480.05;110296;1264;19562;-51
2022/07/03 07:57:39;;;;;;;;;12.67;12.00;;;;;24.26;48.46;101480.15;110238;1264;21180;-49
2022/07/03 08:00:07;;;;;;;;;11.33;11.33;;;;;24.04;49.53;101476.94;110204;1264;18808;-50
2022/07/03 08:05:37;;;;;;;;;7.33;7.00;;;;;24.16;49.25;101474.56;110286;1264;18958;-50
2022/07/03 08:08:05;;;;;;;;;10.00;10.00;;;;;23.99;48.04;101470.77;110304;1264;18693;-49
2022/07/03 08:10:32;;;;;;;;;10.00;10.00;;;;;24.39;47.39;101472.43;110290;1265;23226;-50
2022/07/03 08:12:59;;;;;;;;;11.00;10.00;;;;;24.63;46.82;101466.21;110297;1264;21555;-48
2022/07/03 08:15:26;;;;;;;;;12.00;12.00;;;;;24.76;46.82;101463.56;110242;1264;19018;-49
2022/07/03 08:17:54;;;;;;;;;13.00;13.00;;;;;25.19;46.80;101460.68;110271;1264;19536;-49
2022/07/03 08:20:21;;;;;;;;;10.00;10.00;;;;;25.25;46.38;101460.86;110257;1264;18821;-49
2022/07/03 08:22:48;;;;;;;;;11.00;11.00;;;;;24.92;47.08;101461.04;110252;1263;18917;-50
2022/07/03 08:25:15;;;;;;;;;11.00;11.00;;;;;24.82;47.79;101457.90;110300;1264;19590;-53
2022/07/03 08:27:43;;;;;;;;;12.00;12.00;;;;;24.65;48.21;101458.44;110298;1264;18832;-50
2022/07/03 08:30:10;;;;;;;;;11.00;11.00;;;;;25.09;47.41;101457.66;110303;1264;22225;-50
2022/07/03 08:32:37;;;;;;;;;11.00;11.00;;;;;24.69;46.82;101461.44;110277;1264;20766;-51
2022/07/03 08:35:04;;;;;;;;;11.67;11.67;;;;;24.39;47.48;101457.39;110295;1265;22932;-50
2022/07/03 08:37:32;;;;;;;;;13.67;11.00;;;;;24.44;47.07;101457.95;110291;1265;19046;-51
2022/07/03 08:39:59;;;;;;;;;13.00;12.00;;;;;24.41;46.86;101454.48;110304;1264;20793;-49
2022/07/03 08:42:26;;;;;;;;;12.00;12.00;;;;;24.59;46.72;101459.17;110276;1264;18772;-53
2022/07/03 08:44:53;;;;;;;;;12.67;12.33;;;;;25.04;46.35;101455.89;110215;1264;18985;-47
2022/07/03 08:47:21;;;;;;;;;10.00;10.00;;;;;25.40;46.02;101453.73;110285;1264;19731;-49
2022/07/03 08:49:48;;;;;;;;;12.00;11.33;;;;;25.22;45.20;101447.70;110161;1264;18972;-47
2022/07/03 08:52:16;;;;;;;;;11.67;11.00;;;;;24.94;45.28;101450.80;110236;1264;18949;-52
2022/07/03 08:54:43;;;;;;;;;8.67;8.67;;;;;24.98;45.52;101455.17;110260;1264;19363;-54
2022/07/03 08:57:11;;;;;;;;;11.00;10.67;;;;;24.65;44.82;101449.98;110269;1264;18712;-51
2022/07/03 08:59:38;;;;;;;;;10.33;10.00;;;;;24.53;44.89;101450.48;110272;1264;19534;-48
2022/07/03 09:02:05;;;;;;;;;8.67;8.67;;;;;24.68;43.65;101448.96;110264;1264;20128;-49
2022/07/03 09:04:33;;;;;;;;;7.67;7.33;;;;;24.40;42.73;101447.36;110268;1264;20332;-46
2022/07/03 09:07:00;;;;;;;;;11.00;11.00;;;;;24.39;42.86;101441.88;110313;1264;20921;-49
2022/07/03 09:09:27;;;;;;;;;10.00;10.00;;;;;24.50;42.48;101438.88;110275;1264;21418;-50
2022/07/03 09:11:55;;;;;;;;;11.00;10.00;;;;;24.69;42.54;101433.86;110295;1264;18711;-48
2022/07/03 09:14:22;;;;;;;;;12.00;11.00;;;;;24.76;42.46;101433.61;110301;1265;18818;-49
2022/07/03 09:16:49;;;;;;;;;10.00;10.00;;;;;24.63;42.89;101429.47;110295;1264;19557;-50
2022/07/03 09:19:16;;;;;;;;;10.00;10.00;;;;;24.57;43.25;101433.88;110305;1264;18853;-51
2022/07/03 09:21:46;;;;;;;;;12.00;11.00;;;;;24.42;43.57;101432.92;110300;1264;29572;-50
2022/07/03 09:24:13;;;;;;;;;10.00;10.00;;;;;24.32;43.90;101432.70;110257;1265;19756;-52
2022/07/03 09:26:40;;;;;;;;;10.00;10.00;;;;;24.39;44.21;101430.63;110256;1264;19004;-48
2022/07/03 09:29:09;;;;;;;;;10.67;10.67;;;;;24.74;43.88;101425.55;110265;1264;19061;-51
2022/07/03 09:31:36;;;;;;;;;10.00;10.00;;;;;25.18;43.27;101424.08;110289;1265;21705;-49
2022/07/03 09:34:03;;;;;;;;;10.00;10.00;;;;;25.10;43.10;101421.27;110331;1264;18914;-52
2022/07/03 09:36:30;;;;;;;;;10.50;10.00;;;;;25.14;43.12;101415.92;110285;1264;22253;-49
2022/07/03 09:38:58;;;;;;;;;8.33;8.33;;;;;25.16;43.18;101411.95;110293;1264;19798;-51
2022/07/03 09:41:25;;;;;;;;;11.67;11.00;;;;;25.18;43.16;101413.08;110286;1264;19224;-50
2022/07/03 09:43:52;;;;;;;;;11.33;11.00;;;;;24.96;42.77;101411.73;110279;1264;18799;-50
2022/07/03 09:46:20;;;;;;;;;11.00;11.00;;;;;24.93;42.97;101409.92;110293;1264;19879;-51
2022/07/03 09:48:47;;;;;;;;;9.33;9.00;;;;;24.99;42.10;101409.41;110309;1264;18881;-49
2022/07/03 09:51:14;;;;;;;;;12.00;12.00;;;;;24.78;41.45;101404.69;110286;1264;19471;-49
2022/07/03 09:53:41;;;;;;;;;9.00;8.50;;;;;24.84;41.82;101398.63;110268;1264;19670;-50
2022/07/03 09:56:09;;;;;;;;;7.50;7.50;;;;;25.17;41.28;101400.02;110279;1264;18823;-51
2022/07/03 09:58:36;;;;;;;;;12.00;11.00;;;;;25.29;41.31;101404.98;110267;1264;18880;-50
2022/07/03 10:01:03;;;;;;;;;11.00;11.00;;;;;25.34;41.07;101404.88;110312;1265;19662;-50
2022/07/03 10:03:30;;;;;;;;;8.67;8.33;;;;;25.29;41.02;101395.62;110298;1264;18682;-50
2022/07/03 10:05:58;;;;;;;;;11.00;9.00;;;;;25.47;40.94;101391.88;110286;1264;18704;-53
2022/07/03 10:08:25;;;;;;;;;9.00;9.00;;;;;25.16;41.13;101391.38;110303;1265;19389;-51
2022/07/03 10:10:52;;;;;;;;;9.33;9.00;;;;;25.11;41.45;101393.86;110291;1264;18782;-50
2022/07/03 10:13:19;;;;;;;;;12.33;12.33;;;;;25.18;41.57;101394.84;110298;1264;18755;-46
2022/07/03 10:15:47;;;;;;;;;10.67;9.67;;;;;25.24;41.41;101392.73;110316;1265;19695;-50
2022/07/03 10:18:14;;;;;;;;;11.00;11.00;;;;;24.99;40.83;101391.30;110295;1265;18765;-50
2022/07/03 10:20:41;;;;;;;;;12.67;12.00;;;;;24.81;41.50;101385.46;110295;1264;18857;-52
2022/07/03 10:23:08;;;;;;;;;13.00;12.00;;;;;25.25;41.04;101376.40;110260;1264;20271;-51
2022/07/03 10:25:36;;;;;;;;;22.00;19.50;;;;;25.58;40.82;101373.16;110203;1265;18935;-50
2022/07/03 10:28:03;;;;;;;;;21.00;18.67;;;;;25.87;40.82;101372.02;110244;1264;22878;-50
2022/07/03 10:30:30;;;;;;;;;12.00;12.00;;;;;25.83;40.43;101373.30;110198;1265;19537;-49
2022/07/03 10:32:58;;;;;;;;;11.33;11.33;;;;;25.48;40.32;101367.58;110192;1264;20383;-48
2022/07/03 10:35:25;;;;;;;;;11.00;10.00;;;;;25.33;40.32;101366.80;110292;1264;18819;-48
2022/07/03 10:37:52;;;;;;;;;30.00;27.00;;;;;25.31;40.41;101360.98;110293;1265;19806;-49
2022/07/03 10:45:45;;;;;;;;;12.00;12.00;;;;;25.70;40.61;101357.11;109594;1270;22712;-51
2022/07/03 10:48:12;;;;;;;;;11.00;11.00;;;;;25.60;40.61;101347.04;109542;1270;18833;-50
2022/07/03 10:50:40;;;;;;;;;12.00;12.00;;;;;25.42;40.54;101353.31;109564;1270;19057;-50
2022/07/03 10:53:07;;;;;;;;;9.00;9.00;;;;;25.23;40.59;101345.48;109566;1270;19804;-50
2022/07/03 10:55:34;;;;;;;;;9.00;9.00;;;;;25.26;40.55;101341.30;109574;1270;18907;-52
2022/07/03 10:58:02;;;;;;;;;12.00;11.67;;;;;25.39;40.69;101340.23;109644;1270;20137;-50
2022/07/03 11:00:30;;;;;;;;;11.00;9.00;;;;;25.38;40.82;101335.41;109582;1270;19510;-50
2022/07/03 11:02:57;;;;;;;;;10.50;10.50;;;;;25.41;41.06;101335.02;109488;1270;22858;-54
2022/07/03 11:05:24;;;;;;;;;8.67;8.67;;;;;25.48;41.05;101333.80;109592;1270;20456;-53
2022/07/03 11:08:03;;;;;;;;;11.33;11.00;;;;;25.19;40.84;101328.30;109529;1270;19594;-53
2022/07/03 11:10:36;;;;;;;;;12.00;11.00;;;;;25.06;41.51;101328.98;109502;1270;18714;-53